sensor_id;sensor_type;location;lat;lon;timestamp;P1;durP1;ratioP1;P2;durP2;ratioP2
19137;SDS011;68178;52.188;5.598;2023-05-07T00:00:38;9.02;;;8.13;;
19137;SDS011;68178;52.188;5.598;2023-05-07T00:03:03;10.05;;;7.70;;
19137;SDS011;68178;52.188;5.598;2023-05-07T00:05:30;9.10;;;7.30;;
19137;SDS011;68178;52.188;5.598;2023-05-07T00:07:55;8.77;;;7.93;;
19137;SDS011;68178;52.188;5.598;2023-05-07T00:10:21;9.23;;;7.78;;
19137;SDS011;68178;52.188;5.598;2023-05-07T00:12:46;8.85;;;7.65;;
19137;SDS011;68178;52.188;5.598;2023-05-07T00:15:12;8.68;;;7.80;;
19137;SDS011;68178;52.188;5.598;2023-05-07T00:17:38;8.23;;;7.43;;
19137;SDS011;68178;52.188;5.598;2023-05-07T00:20:04;9.23;;;8.10;;
19137;SDS011;68178;52.188;5.598;2023-05-07T00:22:30;9.70;;;8.80;;
19137;SDS011;68178;52.188;5.598;2023-05-07T00:24:57;8.90;;;8.07;;
19137;SDS011;68178;52.188;5.598;2023-05-07T00:27:22;9.32;;;8.38;;
19137;SDS011;68178;52.188;5.598;2023-05-07T00:29:48;9.88;;;8.88;;
19137;SDS011;68178;52.188;5.598;2023-05-07T00:32:14;8.65;;;7.75;;
19137;SDS011;68178;52.188;5.598;2023-05-07T00:34:40;8.15;;;7.45;;
19137;SDS011;68178;52.188;5.598;2023-05-07T00:37:05;10.90;;;8.57;;
19137;SDS011;68178;52.188;5.598;2023-05-07T00:39:32;11.70;;;8.30;;
19137;SDS011;68178;52.188;5.598;2023-05-07T00:41:58;9.27;;;8.00;;
19137;SDS011;68178;52.188;5.598;2023-05-07T00:44:25;9.88;;;8.90;;
19137;SDS011;68178;52.188;5.598;2023-05-07T00:46:51;9.85;;;7.97;;
19137;SDS011;68178;52.188;5.598;2023-05-07T00:49:17;10.10;;;8.02;;
19137;SDS011;68178;52.188;5.598;2023-05-07T00:51:43;9.15;;;8.25;;
19137;SDS011;68178;52.188;5.598;2023-05-07T00:54:10;9.82;;;8.32;;
19137;SDS011;68178;52.188;5.598;2023-05-07T00:56:36;11.10;;;8.48;;
19137;SDS011;68178;52.188;5.598;2023-05-07T00:59:04;9.40;;;8.43;;
19137;SDS011;68178;52.188;5.598;2023-05-07T01:01:30;11.52;;;8.93;;
19137;SDS011;68178;52.188;5.598;2023-05-07T01:03:56;9.77;;;8.90;;
19137;SDS011;68178;52.188;5.598;2023-05-07T01:06:22;9.68;;;8.55;;
19137;SDS011;68178;52.188;5.598;2023-05-07T01:08:52;10.20;;;8.85;;
19137;SDS011;68178;52.188;5.598;2023-05-07T01:11:21;9.50;;;8.60;;
19137;SDS011;68178;52.188;5.598;2023-05-07T01:13:47;11.93;;;9.05;;
19137;SDS011;68178;52.188;5.598;2023-05-07T01:16:15;9.73;;;8.70;;
19137;SDS011;68178;52.188;5.598;2023-05-07T01:18:40;11.25;;;10.07;;
19137;SDS011;68178;52.188;5.598;2023-05-07T01:21:06;9.55;;;8.60;;
19137;SDS011;68178;52.188;5.598;2023-05-07T01:23:35;8.73;;;8.02;;
19137;SDS011;68178;52.188;5.598;2023-05-07T01:26:01;9.90;;;8.90;;
19137;SDS011;68178;52.188;5.598;2023-05-07T01:28:28;9.57;;;8.50;;
19137;SDS011;68178;52.188;5.598;2023-05-07T01:31:00;9.98;;;9.00;;
19137;SDS011;68178;52.188;5.598;2023-05-07T01:33:26;9.57;;;8.38;;
19137;SDS011;68178;52.188;5.598;2023-05-07T01:35:56;9.93;;;8.95;;
19137;SDS011;68178;52.188;5.598;2023-05-07T01:38:25;10.38;;;9.45;;
19137;SDS011;68178;52.188;5.598;2023-05-07T01:40:51;11.30;;;8.95;;
19137;SDS011;68178;52.188;5.598;2023-05-07T01:43:18;10.23;;;9.15;;
19137;SDS011;68178;52.188;5.598;2023-05-07T01:45:53;12.27;;;8.93;;
19137;SDS011;68178;52.188;5.598;2023-05-07T01:48:20;9.80;;;8.95;;
19137;SDS011;68178;52.188;5.598;2023-05-07T01:50:46;10.15;;;8.82;;
19137;SDS011;68178;52.188;5.598;2023-05-07T01:53:12;9.45;;;8.43;;
19137;SDS011;68178;52.188;5.598;2023-05-07T01:55:38;10.55;;;9.27;;
19137;SDS011;68178;52.188;5.598;2023-05-07T01:58:05;11.82;;;8.85;;
19137;SDS011;68178;52.188;5.598;2023-05-07T02:00:31;11.48;;;8.55;;
19137;SDS011;68178;52.188;5.598;2023-05-07T02:02:57;10.60;;;9.50;;
19137;SDS011;68178;52.188;5.598;2023-05-07T02:05:22;10.60;;;9.13;;
19137;SDS011;68178;52.188;5.598;2023-05-07T02:07:48;10.27;;;9.18;;
19137;SDS011;68178;52.188;5.598;2023-05-07T02:10:14;9.75;;;8.77;;
19137;SDS011;68178;52.188;5.598;2023-05-07T02:12:39;12.25;;;9.05;;
19137;SDS011;68178;52.188;5.598;2023-05-07T02:15:05;10.98;;;8.95;;
19137;SDS011;68178;52.188;5.598;2023-05-07T02:17:31;10.18;;;9.10;;
19137;SDS011;68178;52.188;5.598;2023-05-07T02:19:58;9.48;;;8.63;;
19137;SDS011;68178;52.188;5.598;2023-05-07T02:22:23;11.10;;;10.07;;
19137;SDS011;68178;52.188;5.598;2023-05-07T02:24:49;12.60;;;10.30;;
19137;SDS011;68178;52.188;5.598;2023-05-07T02:27:14;10.00;;;9.02;;
19137;SDS011;68178;52.188;5.598;2023-05-07T02:29:40;11.68;;;10.50;;
19137;SDS011;68178;52.188;5.598;2023-05-07T02:32:06;11.20;;;10.10;;
19137;SDS011;68178;52.188;5.598;2023-05-07T02:34:31;12.45;;;10.82;;
19137;SDS011;68178;52.188;5.598;2023-05-07T02:36:59;11.23;;;10.10;;
19137;SDS011;68178;52.188;5.598;2023-05-07T02:39:25;12.85;;;11.20;;
19137;SDS011;68178;52.188;5.598;2023-05-07T02:41:50;13.50;;;11.52;;
19137;SDS011;68178;52.188;5.598;2023-05-07T02:44:16;13.05;;;11.60;;
19137;SDS011;68178;52.188;5.598;2023-05-07T02:46:41;13.63;;;12.23;;
19137;SDS011;68178;52.188;5.598;2023-05-07T02:49:07;12.90;;;11.57;;
19137;SDS011;68178;52.188;5.598;2023-05-07T02:51:32;12.40;;;11.18;;
19137;SDS011;68178;52.188;5.598;2023-05-07T02:53:58;14.43;;;12.95;;
19137;SDS011;68178;52.188;5.598;2023-05-07T02:56:25;13.73;;;12.45;;
19137;SDS011;68178;52.188;5.598;2023-05-07T02:58:51;14.13;;;12.50;;
19137;SDS011;68178;52.188;5.598;2023-05-07T03:01:17;13.82;;;12.50;;
19137;SDS011;68178;52.188;5.598;2023-05-07T03:03:42;14.30;;;12.90;;
19137;SDS011;68178;52.188;5.598;2023-05-07T03:06:09;16.50;;;13.90;;
19137;SDS011;68178;52.188;5.598;2023-05-07T03:08:34;17.15;;;13.18;;
19137;SDS011;68178;52.188;5.598;2023-05-07T03:11:01;14.55;;;13.07;;
19137;SDS011;68178;52.188;5.598;2023-05-07T03:13:27;14.68;;;13.35;;
19137;SDS011;68178;52.188;5.598;2023-05-07T03:15:52;14.05;;;12.75;;
19137;SDS011;68178;52.188;5.598;2023-05-07T03:18:18;15.43;;;13.23;;
19137;SDS011;68178;52.188;5.598;2023-05-07T03:20:43;15.70;;;13.95;;
19137;SDS011;68178;52.188;5.598;2023-05-07T03:23:09;16.75;;;13.95;;
19137;SDS011;68178;52.188;5.598;2023-05-07T03:25:34;15.93;;;14.43;;
19137;SDS011;68178;52.188;5.598;2023-05-07T03:28:00;15.95;;;14.25;;
19137;SDS011;68178;52.188;5.598;2023-05-07T03:30:26;15.13;;;13.60;;
19137;SDS011;68178;52.188;5.598;2023-05-07T03:32:51;15.43;;;13.93;;
19137;SDS011;68178;52.188;5.598;2023-05-07T03:35:17;14.68;;;13.13;;
19137;SDS011;68178;52.188;5.598;2023-05-07T03:37:42;16.70;;;14.80;;
19137;SDS011;68178;52.188;5.598;2023-05-07T03:40:08;17.45;;;15.48;;
19137;SDS011;68178;52.188;5.598;2023-05-07T03:42:35;18.02;;;16.10;;
19137;SDS011;68178;52.188;5.598;2023-05-07T03:45:00;16.63;;;15.02;;
19137;SDS011;68178;52.188;5.598;2023-05-07T03:47:26;17.40;;;15.70;;
19137;SDS011;68178;52.188;5.598;2023-05-07T03:49:52;17.75;;;13.98;;
19137;SDS011;68178;52.188;5.598;2023-05-07T03:52:18;16.25;;;14.60;;
19137;SDS011;68178;52.188;5.598;2023-05-07T03:54:48;17.40;;;15.60;;
19137;SDS011;68178;52.188;5.598;2023-05-07T03:57:14;15.73;;;14.27;;
19137;SDS011;68178;52.188;5.598;2023-05-07T03:59:40;16.45;;;14.82;;
19137;SDS011;68178;52.188;5.598;2023-05-07T04:02:05;16.88;;;15.07;;
19137;SDS011;68178;52.188;5.598;2023-05-07T04:04:31;17.10;;;15.35;;
19137;SDS011;68178;52.188;5.598;2023-05-07T04:06:57;17.95;;;16.17;;
19137;SDS011;68178;52.188;5.598;2023-05-07T04:09:24;16.67;;;14.73;;
19137;SDS011;68178;52.188;5.598;2023-05-07T04:11:50;18.73;;;15.73;;
19137;SDS011;68178;52.188;5.598;2023-05-07T04:14:15;17.65;;;15.85;;
19137;SDS011;68178;52.188;5.598;2023-05-07T04:16:41;17.55;;;15.57;;
19137;SDS011;68178;52.188;5.598;2023-05-07T04:19:07;18.05;;;16.13;;
19137;SDS011;68178;52.188;5.598;2023-05-07T04:21:32;17.83;;;16.08;;
19137;SDS011;68178;52.188;5.598;2023-05-07T04:23:58;18.30;;;16.58;;
19137;SDS011;68178;52.188;5.598;2023-05-07T04:26:23;20.15;;;18.15;;
19137;SDS011;68178;52.188;5.598;2023-05-07T04:28:49;20.10;;;18.08;;
19137;SDS011;68178;52.188;5.598;2023-05-07T04:31:15;21.65;;;19.35;;
19137;SDS011;68178;52.188;5.598;2023-05-07T04:33:41;19.63;;;17.92;;
19137;SDS011;68178;52.188;5.598;2023-05-07T04:36:07;21.58;;;19.38;;
19137;SDS011;68178;52.188;5.598;2023-05-07T04:38:32;23.35;;;20.70;;
19137;SDS011;68178;52.188;5.598;2023-05-07T04:41:02;22.60;;;20.48;;
19137;SDS011;68178;52.188;5.598;2023-05-07T04:43:30;25.77;;;22.27;;
19137;SDS011;68178;52.188;5.598;2023-05-07T04:45:55;24.45;;;22.15;;
19137;SDS011;68178;52.188;5.598;2023-05-07T04:48:21;25.52;;;23.00;;
19137;SDS011;68178;52.188;5.598;2023-05-07T04:50:47;26.33;;;23.70;;
19137;SDS011;68178;52.188;5.598;2023-05-07T04:53:13;25.80;;;23.17;;
19137;SDS011;68178;52.188;5.598;2023-05-07T04:55:39;26.90;;;24.33;;
19137;SDS011;68178;52.188;5.598;2023-05-07T04:58:04;25.00;;;22.60;;
19137;SDS011;68178;52.188;5.598;2023-05-07T05:00:30;26.63;;;24.02;;
19137;SDS011;68178;52.188;5.598;2023-05-07T05:02:56;25.90;;;23.25;;
19137;SDS011;68178;52.188;5.598;2023-05-07T05:05:21;27.02;;;24.35;;
19137;SDS011;68178;52.188;5.598;2023-05-07T05:07:47;26.75;;;24.30;;
19137;SDS011;68178;52.188;5.598;2023-05-07T05:10:12;26.98;;;23.98;;
19137;SDS011;68178;52.188;5.598;2023-05-07T05:12:38;26.75;;;23.95;;
19137;SDS011;68178;52.188;5.598;2023-05-07T05:15:03;27.15;;;24.45;;
19137;SDS011;68178;52.188;5.598;2023-05-07T05:17:30;27.42;;;24.60;;
19137;SDS011;68178;52.188;5.598;2023-05-07T05:19:55;28.17;;;25.27;;
19137;SDS011;68178;52.188;5.598;2023-05-07T05:22:21;31.38;;;24.60;;
19137;SDS011;68178;52.188;5.598;2023-05-07T05:24:47;27.27;;;24.50;;
19137;SDS011;68178;52.188;5.598;2023-05-07T05:27:12;27.75;;;25.05;;
19137;SDS011;68178;52.188;5.598;2023-05-07T05:29:38;26.70;;;24.15;;
19137;SDS011;68178;52.188;5.598;2023-05-07T05:32:03;27.77;;;24.98;;
19137;SDS011;68178;52.188;5.598;2023-05-07T05:34:29;27.30;;;24.05;;
19137;SDS011;68178;52.188;5.598;2023-05-07T05:36:54;27.15;;;24.45;;
19137;SDS011;68178;52.188;5.598;2023-05-07T05:39:20;26.83;;;24.13;;
19137;SDS011;68178;52.188;5.598;2023-05-07T05:41:48;26.83;;;24.13;;
19137;SDS011;68178;52.188;5.598;2023-05-07T05:44:13;27.25;;;24.65;;
19137;SDS011;68178;52.188;5.598;2023-05-07T05:46:39;26.42;;;23.83;;
19137;SDS011;68178;52.188;5.598;2023-05-07T05:49:04;27.38;;;24.70;;
19137;SDS011;68178;52.188;5.598;2023-05-07T05:51:30;27.40;;;24.50;;
19137;SDS011;68178;52.188;5.598;2023-05-07T05:53:55;28.35;;;25.38;;
19137;SDS011;68178;52.188;5.598;2023-05-07T05:56:21;26.48;;;23.80;;
19137;SDS011;68178;52.188;5.598;2023-05-07T05:58:46;27.02;;;24.30;;
19137;SDS011;68178;52.188;5.598;2023-05-07T06:01:12;28.92;;;26.02;;
19137;SDS011;68178;52.188;5.598;2023-05-07T06:03:38;27.40;;;24.70;;
19137;SDS011;68178;52.188;5.598;2023-05-07T06:06:03;27.23;;;24.52;;
19137;SDS011;68178;52.188;5.598;2023-05-07T06:08:29;27.70;;;24.90;;
19137;SDS011;68178;52.188;5.598;2023-05-07T06:10:55;28.25;;;25.35;;
19137;SDS011;68178;52.188;5.598;2023-05-07T06:13:21;28.27;;;25.65;;
19137;SDS011;68178;52.188;5.598;2023-05-07T06:15:47;28.52;;;25.80;;
19137;SDS011;68178;52.188;5.598;2023-05-07T06:18:16;28.73;;;25.90;;
19137;SDS011;68178;52.188;5.598;2023-05-07T06:20:42;28.30;;;25.50;;
19137;SDS011;68178;52.188;5.598;2023-05-07T06:23:13;27.45;;;24.73;;
19137;SDS011;68178;52.188;5.598;2023-05-07T06:25:39;30.73;;;27.48;;
19137;SDS011;68178;52.188;5.598;2023-05-07T06:28:05;29.95;;;26.83;;
19137;SDS011;68178;52.188;5.598;2023-05-07T06:30:31;30.58;;;27.48;;
19137;SDS011;68178;52.188;5.598;2023-05-07T06:32:56;27.95;;;25.15;;
19137;SDS011;68178;52.188;5.598;2023-05-07T06:35:22;29.27;;;26.48;;
19137;SDS011;68178;52.188;5.598;2023-05-07T06:37:47;31.10;;;27.67;;
19137;SDS011;68178;52.188;5.598;2023-05-07T06:40:19;29.40;;;26.50;;
19137;SDS011;68178;52.188;5.598;2023-05-07T06:42:44;29.90;;;26.98;;
19137;SDS011;68178;52.188;5.598;2023-05-07T06:45:10;29.85;;;27.02;;
19137;SDS011;68178;52.188;5.598;2023-05-07T06:47:36;27.42;;;24.92;;
19137;SDS011;68178;52.188;5.598;2023-05-07T06:50:01;29.55;;;26.67;;
19137;SDS011;68178;52.188;5.598;2023-05-07T06:52:27;29.02;;;26.25;;
19137;SDS011;68178;52.188;5.598;2023-05-07T06:54:55;27.85;;;25.23;;
19137;SDS011;68178;52.188;5.598;2023-05-07T06:57:20;28.25;;;25.42;;
19137;SDS011;68178;52.188;5.598;2023-05-07T06:59:46;27.52;;;24.83;;
19137;SDS011;68178;52.188;5.598;2023-05-07T07:02:11;26.50;;;23.95;;
19137;SDS011;68178;52.188;5.598;2023-05-07T07:04:40;25.55;;;23.20;;
19137;SDS011;68178;52.188;5.598;2023-05-07T07:07:06;26.40;;;23.90;;
19137;SDS011;68178;52.188;5.598;2023-05-07T07:09:32;28.35;;;25.52;;
19137;SDS011;68178;52.188;5.598;2023-05-07T07:11:58;26.45;;;24.05;;
19137;SDS011;68178;52.188;5.598;2023-05-07T07:14:23;28.45;;;25.60;;
19137;SDS011;68178;52.188;5.598;2023-05-07T07:16:52;29.70;;;26.73;;
19137;SDS011;68178;52.188;5.598;2023-05-07T07:19:17;27.92;;;25.13;;
19137;SDS011;68178;52.188;5.598;2023-05-07T07:21:43;28.73;;;25.90;;
19137;SDS011;68178;52.188;5.598;2023-05-07T07:24:09;28.17;;;25.27;;
19137;SDS011;68178;52.188;5.598;2023-05-07T07:26:35;29.98;;;26.70;;
19137;SDS011;68178;52.188;5.598;2023-05-07T07:29:00;28.27;;;25.38;;
19137;SDS011;68178;52.188;5.598;2023-05-07T07:31:26;30.42;;;27.42;;
19137;SDS011;68178;52.188;5.598;2023-05-07T07:33:51;30.08;;;27.13;;
19137;SDS011;68178;52.188;5.598;2023-05-07T07:36:17;30.02;;;27.15;;
19137;SDS011;68178;52.188;5.598;2023-05-07T07:38:42;31.67;;;28.45;;
19137;SDS011;68178;52.188;5.598;2023-05-07T07:41:08;32.55;;;28.98;;
19137;SDS011;68178;52.188;5.598;2023-05-07T07:43:34;30.52;;;27.35;;
19137;SDS011;68178;52.188;5.598;2023-05-07T07:46:06;28.23;;;25.40;;
19137;SDS011;68178;52.188;5.598;2023-05-07T07:48:31;32.28;;;28.65;;
19137;SDS011;68178;52.188;5.598;2023-05-07T07:50:58;30.15;;;27.15;;
19137;SDS011;68178;52.188;5.598;2023-05-07T07:53:24;29.42;;;26.33;;
19137;SDS011;68178;52.188;5.598;2023-05-07T07:55:50;28.83;;;25.23;;
19137;SDS011;68178;52.188;5.598;2023-05-07T07:58:18;30.77;;;27.63;;
19137;SDS011;68178;52.188;5.598;2023-05-07T08:00:43;28.25;;;25.33;;
19137;SDS011;68178;52.188;5.598;2023-05-07T08:03:12;26.45;;;23.73;;
19137;SDS011;68178;52.188;5.598;2023-05-07T08:05:37;26.92;;;24.13;;
19137;SDS011;68178;52.188;5.598;2023-05-07T08:08:03;26.58;;;23.88;;
19137;SDS011;68178;52.188;5.598;2023-05-07T08:10:29;27.60;;;24.75;;
19137;SDS011;68178;52.188;5.598;2023-05-07T08:12:58;27.25;;;24.52;;
19137;SDS011;68178;52.188;5.598;2023-05-07T08:15:24;25.83;;;23.17;;
19137;SDS011;68178;52.188;5.598;2023-05-07T08:17:49;26.25;;;23.17;;
19137;SDS011;68178;52.188;5.598;2023-05-07T08:20:15;24.73;;;22.30;;
19137;SDS011;68178;52.188;5.598;2023-05-07T08:22:40;25.83;;;23.23;;
19137;SDS011;68178;52.188;5.598;2023-05-07T08:25:06;25.27;;;22.75;;
19137;SDS011;68178;52.188;5.598;2023-05-07T08:27:32;26.95;;;22.55;;
19137;SDS011;68178;52.188;5.598;2023-05-07T08:29:57;23.88;;;21.55;;
19137;SDS011;68178;52.188;5.598;2023-05-07T08:32:23;24.60;;;21.98;;
19137;SDS011;68178;52.188;5.598;2023-05-07T08:34:49;25.13;;;22.58;;
19137;SDS011;68178;52.188;5.598;2023-05-07T08:37:15;24.63;;;22.17;;
19137;SDS011;68178;52.188;5.598;2023-05-07T08:39:40;24.25;;;21.25;;
19137;SDS011;68178;52.188;5.598;2023-05-07T08:42:09;26.58;;;22.08;;
19137;SDS011;68178;52.188;5.598;2023-05-07T08:44:36;24.27;;;21.85;;
19137;SDS011;68178;52.188;5.598;2023-05-07T08:47:03;23.08;;;20.70;;
19137;SDS011;68178;52.188;5.598;2023-05-07T08:49:32;24.88;;;22.48;;
19137;SDS011;68178;52.188;5.598;2023-05-07T08:51:58;23.83;;;21.42;;
19137;SDS011;68178;52.188;5.598;2023-05-07T08:54:25;24.48;;;22.10;;
19137;SDS011;68178;52.188;5.598;2023-05-07T08:56:51;26.88;;;24.02;;
19137;SDS011;68178;52.188;5.598;2023-05-07T08:59:16;24.85;;;22.35;;
19137;SDS011;68178;52.188;5.598;2023-05-07T09:01:42;25.42;;;22.80;;
19137;SDS011;68178;52.188;5.598;2023-05-07T09:04:08;24.65;;;22.23;;
19137;SDS011;68178;52.188;5.598;2023-05-07T09:06:34;24.92;;;22.45;;
19137;SDS011;68178;52.188;5.598;2023-05-07T09:09:06;27.00;;;24.27;;
19137;SDS011;68178;52.188;5.598;2023-05-07T09:11:32;27.75;;;24.85;;
19137;SDS011;68178;52.188;5.598;2023-05-07T09:13:57;27.63;;;24.75;;
19137;SDS011;68178;52.188;5.598;2023-05-07T09:16:26;29.80;;;25.55;;
19137;SDS011;68178;52.188;5.598;2023-05-07T09:18:53;28.48;;;25.45;;
19137;SDS011;68178;52.188;5.598;2023-05-07T09:21:20;29.70;;;26.40;;
19137;SDS011;68178;52.188;5.598;2023-05-07T09:23:47;28.08;;;25.23;;
19137;SDS011;68178;52.188;5.598;2023-05-07T09:26:15;27.92;;;24.98;;
19137;SDS011;68178;52.188;5.598;2023-05-07T09:28:40;29.95;;;26.65;;
19137;SDS011;68178;52.188;5.598;2023-05-07T09:31:07;28.45;;;25.05;;
19137;SDS011;68178;52.188;5.598;2023-05-07T09:33:34;26.75;;;23.92;;
19137;SDS011;68178;52.188;5.598;2023-05-07T09:36:02;28.48;;;25.23;;
19137;SDS011;68178;52.188;5.598;2023-05-07T09:38:28;27.90;;;25.00;;
19137;SDS011;68178;52.188;5.598;2023-05-07T09:41:01;27.20;;;24.33;;
19137;SDS011;68178;52.188;5.598;2023-05-07T09:43:37;26.35;;;23.60;;
19137;SDS011;68178;52.188;5.598;2023-05-07T09:46:13;28.48;;;24.90;;
19137;SDS011;68178;52.188;5.598;2023-05-07T09:48:41;25.77;;;23.08;;
19137;SDS011;68178;52.188;5.598;2023-05-07T09:53:56;24.83;;;22.33;;
19137;SDS011;68178;52.188;5.598;2023-05-07T09:56:24;28.30;;;25.27;;
19137;SDS011;68178;52.188;5.598;2023-05-07T09:58:52;27.67;;;24.77;;
19137;SDS011;68178;52.188;5.598;2023-05-07T10:01:19;27.45;;;24.75;;
19137;SDS011;68178;52.188;5.598;2023-05-07T10:03:47;30.30;;;27.08;;
19137;SDS011;68178;52.188;5.598;2023-05-07T10:06:15;29.98;;;25.88;;
19137;SDS011;68178;52.188;5.598;2023-05-07T10:08:44;27.10;;;24.33;;
19137;SDS011;68178;52.188;5.598;2023-05-07T10:11:10;26.10;;;23.48;;
19137;SDS011;68178;52.188;5.598;2023-05-07T10:13:37;25.88;;;23.27;;
19137;SDS011;68178;52.188;5.598;2023-05-07T10:16:03;25.92;;;23.20;;
19137;SDS011;68178;52.188;5.598;2023-05-07T10:18:30;24.30;;;21.80;;
19137;SDS011;68178;52.188;5.598;2023-05-07T10:21:00;25.30;;;22.73;;
19137;SDS011;68178;52.188;5.598;2023-05-07T10:23:31;25.13;;;22.35;;
19137;SDS011;68178;52.188;5.598;2023-05-07T10:25:58;24.40;;;21.90;;
19137;SDS011;68178;52.188;5.598;2023-05-07T10:28:28;25.38;;;22.58;;
19137;SDS011;68178;52.188;5.598;2023-05-07T10:31:07;26.27;;;23.60;;
19137;SDS011;68178;52.188;5.598;2023-05-07T10:33:58;25.95;;;23.17;;
19137;SDS011;68178;52.188;5.598;2023-05-07T10:36:25;22.35;;;20.15;;
19137;SDS011;68178;52.188;5.598;2023-05-07T10:38:52;25.42;;;22.67;;
19137;SDS011;68178;52.188;5.598;2023-05-07T10:41:18;27.67;;;24.58;;
19137;SDS011;68178;52.188;5.598;2023-05-07T10:43:46;23.77;;;21.48;;
19137;SDS011;68178;52.188;5.598;2023-05-07T10:51:29;24.25;;;21.67;;
19137;SDS011;68178;52.188;5.598;2023-05-07T10:56:37;24.70;;;22.20;;
19137;SDS011;68178;52.188;5.598;2023-05-07T11:01:57;24.65;;;22.30;;
19137;SDS011;68178;52.188;5.598;2023-05-07T11:04:29;23.30;;;20.90;;
19137;SDS011;68178;52.188;5.598;2023-05-07T11:07:38;22.15;;;19.95;;
19137;SDS011;68178;52.188;5.598;2023-05-07T11:10:11;21.55;;;19.35;;
19137;SDS011;68178;52.188;5.598;2023-05-07T11:15:12;21.80;;;19.60;;
19137;SDS011;68178;52.188;5.598;2023-05-07T11:17:53;22.40;;;20.20;;
19137;SDS011;68178;52.188;5.598;2023-05-07T11:20:20;22.17;;;19.98;;
19137;SDS011;68178;52.188;5.598;2023-05-07T11:23:05;24.85;;;20.95;;
19137;SDS011;68178;52.188;5.598;2023-05-07T11:25:31;22.95;;;20.60;;
19137;SDS011;68178;52.188;5.598;2023-05-07T11:28:03;22.42;;;20.08;;
19137;SDS011;68178;52.188;5.598;2023-05-07T11:30:35;23.02;;;20.73;;
19137;SDS011;68178;52.188;5.598;2023-05-07T11:33:00;23.20;;;20.85;;
19137;SDS011;68178;52.188;5.598;2023-05-07T11:35:27;22.00;;;19.70;;
19137;SDS011;68178;52.188;5.598;2023-05-07T11:37:57;21.23;;;19.17;;
19137;SDS011;68178;52.188;5.598;2023-05-07T11:40:25;22.02;;;19.80;;
19137;SDS011;68178;52.188;5.598;2023-05-07T11:42:50;22.70;;;20.60;;
19137;SDS011;68178;52.188;5.598;2023-05-07T11:45:22;20.88;;;18.58;;
19137;SDS011;68178;52.188;5.598;2023-05-07T11:47:51;19.70;;;17.63;;
19137;SDS011;68178;52.188;5.598;2023-05-07T11:50:17;20.40;;;18.30;;
19137;SDS011;68178;52.188;5.598;2023-05-07T11:52:49;21.58;;;19.40;;
19137;SDS011;68178;52.188;5.598;2023-05-07T11:55:17;19.77;;;17.60;;
19137;SDS011;68178;52.188;5.598;2023-05-07T11:57:43;20.00;;;18.00;;
19137;SDS011;68178;52.188;5.598;2023-05-07T12:00:10;20.42;;;18.40;;
19137;SDS011;68178;52.188;5.598;2023-05-07T12:02:36;18.90;;;17.02;;
19137;SDS011;68178;52.188;5.598;2023-05-07T12:05:01;18.50;;;16.70;;
19137;SDS011;68178;52.188;5.598;2023-05-07T12:07:27;18.63;;;16.52;;
19137;SDS011;68178;52.188;5.598;2023-05-07T12:09:53;20.92;;;18.80;;
19137;SDS011;68178;52.188;5.598;2023-05-07T12:12:18;18.25;;;16.45;;
19137;SDS011;68178;52.188;5.598;2023-05-07T12:14:45;19.10;;;17.20;;
19137;SDS011;68178;52.188;5.598;2023-05-07T12:17:11;17.52;;;15.80;;
19137;SDS011;68178;52.188;5.598;2023-05-07T12:19:39;18.75;;;16.80;;
19137;SDS011;68178;52.188;5.598;2023-05-07T12:22:07;18.08;;;15.75;;
19137;SDS011;68178;52.188;5.598;2023-05-07T12:24:46;17.35;;;15.55;;
19137;SDS011;68178;52.188;5.598;2023-05-07T12:27:13;17.15;;;15.32;;
19137;SDS011;68178;52.188;5.598;2023-05-07T12:29:39;17.45;;;15.55;;
19137;SDS011;68178;52.188;5.598;2023-05-07T12:32:12;17.45;;;15.48;;
19137;SDS011;68178;52.188;5.598;2023-05-07T12:34:40;18.10;;;16.33;;
19137;SDS011;68178;52.188;5.598;2023-05-07T12:37:05;16.98;;;15.27;;
19137;SDS011;68178;52.188;5.598;2023-05-07T12:39:31;15.82;;;14.32;;
19137;SDS011;68178;52.188;5.598;2023-05-07T12:41:58;16.88;;;15.27;;
19137;SDS011;68178;52.188;5.598;2023-05-07T12:44:33;16.75;;;15.00;;
19137;SDS011;68178;52.188;5.598;2023-05-07T12:47:03;16.27;;;14.65;;
19137;SDS011;68178;52.188;5.598;2023-05-07T12:49:28;15.60;;;14.07;;
19137;SDS011;68178;52.188;5.598;2023-05-07T12:51:54;16.27;;;14.57;;
19137;SDS011;68178;52.188;5.598;2023-05-07T12:54:27;16.45;;;14.82;;
19137;SDS011;68178;52.188;5.598;2023-05-07T12:57:04;15.63;;;13.98;;
19137;SDS011;68178;52.188;5.598;2023-05-07T12:59:34;16.30;;;14.60;;
19137;SDS011;68178;52.188;5.598;2023-05-07T13:02:01;15.57;;;13.77;;
19137;SDS011;68178;52.188;5.598;2023-05-07T13:04:27;15.32;;;13.82;;
19137;SDS011;68178;52.188;5.598;2023-05-07T13:06:53;17.33;;;14.95;;
19137;SDS011;68178;52.188;5.598;2023-05-07T13:09:18;14.77;;;13.35;;
19137;SDS011;68178;52.188;5.598;2023-05-07T13:11:44;16.60;;;13.30;;
19137;SDS011;68178;52.188;5.598;2023-05-07T13:14:09;15.52;;;14.05;;
19137;SDS011;68178;52.188;5.598;2023-05-07T13:16:35;15.00;;;13.52;;
19137;SDS011;68178;52.188;5.598;2023-05-07T13:19:01;15.82;;;14.30;;
19137;SDS011;68178;52.188;5.598;2023-05-07T13:21:26;16.35;;;14.73;;
19137;SDS011;68178;52.188;5.598;2023-05-07T13:23:52;17.52;;;15.82;;
19137;SDS011;68178;52.188;5.598;2023-05-07T13:26:18;16.35;;;14.65;;
19137;SDS011;68178;52.188;5.598;2023-05-07T13:28:44;16.13;;;14.43;;
19137;SDS011;68178;52.188;5.598;2023-05-07T13:31:09;16.85;;;15.07;;
19137;SDS011;68178;52.188;5.598;2023-05-07T13:33:36;17.33;;;15.63;;
19137;SDS011;68178;52.188;5.598;2023-05-07T13:36:02;16.67;;;15.00;;
19137;SDS011;68178;52.188;5.598;2023-05-07T13:38:30;18.67;;;16.75;;
19137;SDS011;68178;52.188;5.598;2023-05-07T13:40:56;17.23;;;15.63;;
19137;SDS011;68178;52.188;5.598;2023-05-07T13:43:21;17.58;;;15.77;;
19137;SDS011;68178;52.188;5.598;2023-05-07T13:45:47;17.35;;;15.40;;
19137;SDS011;68178;52.188;5.598;2023-05-07T13:48:12;15.63;;;13.98;;
19137;SDS011;68178;52.188;5.598;2023-05-07T13:50:38;15.85;;;14.18;;
19137;SDS011;68178;52.188;5.598;2023-05-07T13:53:03;15.02;;;13.55;;
19137;SDS011;68178;52.188;5.598;2023-05-07T13:55:29;15.70;;;14.00;;
19137;SDS011;68178;52.188;5.598;2023-05-07T13:57:59;14.98;;;12.70;;
19137;SDS011;68178;52.188;5.598;2023-05-07T14:00:26;15.68;;;13.80;;
19137;SDS011;68178;52.188;5.598;2023-05-07T14:02:52;13.90;;;12.13;;
19137;SDS011;68178;52.188;5.598;2023-05-07T14:05:18;14.48;;;13.07;;
19137;SDS011;68178;52.188;5.598;2023-05-07T14:07:43;14.95;;;13.20;;
19137;SDS011;68178;52.188;5.598;2023-05-07T14:10:09;15.27;;;13.70;;
19137;SDS011;68178;52.188;5.598;2023-05-07T14:12:36;15.23;;;13.65;;
19137;SDS011;68178;52.188;5.598;2023-05-07T14:15:04;16.63;;;12.93;;
19137;SDS011;68178;52.188;5.598;2023-05-07T14:17:30;15.38;;;13.90;;
19137;SDS011;68178;52.188;5.598;2023-05-07T14:19:56;15.93;;;14.13;;
19137;SDS011;68178;52.188;5.598;2023-05-07T14:22:22;15.10;;;13.60;;
19137;SDS011;68178;52.188;5.598;2023-05-07T14:24:48;13.70;;;12.40;;
19137;SDS011;68178;52.188;5.598;2023-05-07T14:27:15;15.57;;;14.07;;
19137;SDS011;68178;52.188;5.598;2023-05-07T14:29:40;15.75;;;14.05;;
19137;SDS011;68178;52.188;5.598;2023-05-07T14:32:07;15.95;;;13.15;;
19137;SDS011;68178;52.188;5.598;2023-05-07T14:34:33;14.00;;;12.52;;
19137;SDS011;68178;52.188;5.598;2023-05-07T14:36:59;16.20;;;14.43;;
19137;SDS011;68178;52.188;5.598;2023-05-07T14:39:25;15.40;;;13.80;;